Time;durP1;ratioP1;P1;durP2;ratioP2;P2;SDS_P1;SDS_P2;PMS_P1;PMS_P2;Temp;Humidity;BMP_temperature;BMP_pressure;BME280_temperature;BME280_humidity;BME280_pressure;Samples;Min_cycle;Max_cycle;Signal;HPM_P1;HPM_P2
2021/04/06 08:05:10;;;;;;;10.77;3.80;;;6.20;68.90;;;;;;12208431;27;20863;-71
2021/04/06 08:10:57;;;;;;;13.55;3.53;;;6.00;68.30;;;;;;12191154;27;20506;-73
2021/04/06 08:16:43;;;;;;;9.00;3.78;;;6.30;67.30;;;;;;12193788;27;20055;-73
2021/04/06 08:22:32;;;;;;;7.63;3.05;;;6.40;66.70;;;;;;12195432;27;20054;-73
2021/04/06 08:28:37;;;;;;;9.05;3.05;;;6.50;65.70;;;;;;12163212;27;20048;-72
2021/04/06 08:34:33;;;;;;;11.60;2.85;;;6.50;66.00;;;;;;12116040;28;20074;-72
2021/04/06 08:40:44;;;;;;;6.35;3.10;;;6.60;66.20;;;;;;12115821;28;20036;-73
2021/04/06 08:46:43;;;;;;;9.07;3.42;;;6.90;65.90;;;;;;12116429;28;20904;-72
2021/04/06 08:52:29;;;;;;;7.43;2.70;;;6.90;66.20;;;;;;12116565;28;20071;-73
2021/04/06 08:58:19;;;;;;;7.95;3.42;;;7.00;65.80;;;;;;12119666;28;20445;-72
2021/04/06 09:04:11;;;;;;;6.93;2.83;;;7.20;65.40;;;;;;12115161;28;20529;-71
2021/04/06 09:09:58;;;;;;;6.68;2.95;;;7.40;62.80;;;;;;12116643;28;20097;-71
2021/04/06 09:15:48;;;;;;;7.85;3.80;;;7.40;63.50;;;;;;12089383;28;20059;-72
2021/04/06 09:21:36;;;;;;;11.02;4.03;;;7.40;63.90;;;;;;12082002;28;20708;-72
2021/04/06 09:27:22;;;;;;;9.48;3.67;;;7.20;65.80;;;;;;12079971;28;20417;-71
2021/04/06 09:33:12;;;;;;;7.93;2.88;;;7.50;65.80;;;;;;12083030;28;20048;-72
2021/04/06 09:38:59;;;;;;;11.43;3.13;;;7.80;63.30;;;;;;12082018;28;20044;-72
2021/04/06 09:44:47;;;;;;;4.82;2.58;;;7.60;63.00;;;;;;12080717;28;20125;-73
2021/04/06 09:50:35;;;;;;;9.30;2.90;;;7.40;61.30;;;;;;12082448;28;20459;-72
2021/04/06 09:56:21;;;;;;;7.90;3.10;;;7.80;61.30;;;;;;12079069;28;20044;-72
2021/04/06 10:02:15;;;;;;;6.72;2.50;;;7.60;60.90;;;;;;12078319;28;20048;-73
2021/04/06 10:08:03;;;;;;;4.85;1.90;;;7.80;59.00;;;;;;12085459;28;20067;-73
2021/04/06 10:13:50;;;;;;;6.13;2.58;;;7.60;56.80;;;;;;12080127;28;20499;-72
2021/04/06 10:19:39;;;;;;;8.27;2.53;;;7.70;57.10;;;;;;12082598;28;20540;-72
2021/04/06 10:25:28;;;;;;;5.05;2.55;;;7.80;58.00;;;;;;12078109;28;20085;-73
2021/04/06 10:31:15;;;;;;;8.68;3.08;;;7.90;57.20;;;;;;12083129;28;20044;-74
2021/04/06 10:37:04;;;;;;;8.07;2.85;;;7.70;58.30;;;;;;12094167;28;20135;-78
2021/04/06 10:42:54;;;;;;;11.90;3.30;;;7.70;58.50;;;;;;12089313;28;20044;-76
2021/04/06 10:48:43;;;;;;;6.47;2.80;;;7.50;59.00;;;;;;12082788;28;20070;-74
2021/04/06 10:54:29;;;;;;;7.38;3.03;;;7.40;60.50;;;;;;12082520;28;20036;-74
2021/04/06 11:00:22;;;;;;;8.63;2.90;;;7.10;67.80;;;;;;12079926;28;20051;-75
2021/04/06 11:06:14;;;;;;;7.82;3.40;;;6.70;70.30;;;;;;12076631;28;20533;-75
2021/04/06 11:12:01;;;;;;;13.52;4.30;;;6.70;72.60;;;;;;12075668;28;20051;-75
2021/04/06 11:17:48;;;;;;;6.30;3.20;;;7.10;72.70;;;;;;12082440;28;20070;-74
2021/04/06 11:23:35;;;;;;;14.00;2.55;;;7.10;70.70;;;;;;12076976;28;20048;-74
2021/04/06 11:29:32;;;;;;;4.60;1.85;;;7.10;67.80;;;;;;12077820;28;20100;-73
2021/04/06 11:35:19;;;;;;;5.72;2.10;;;7.60;64.40;;;;;;12080202;28;20048;-74
2021/04/06 11:41:06;;;;;;;5.22;1.92;;;7.90;63.50;;;;;;12077142;28;20055;-74
2021/04/06 11:46:53;;;;;;;4.15;1.58;;;7.90;62.10;;;;;;12078334;28;20058;-74
2021/04/06 11:52:40;;;;;;;3.50;1.10;;;8.30;61.60;;;;;;12074900;28;20044;-75
2021/04/06 11:58:27;;;;;;;4.32;1.30;;;8.10;50.70;;;;;;12075554;28;20075;-74
2021/04/06 12:04:14;;;;;;;4.68;1.38;;;8.50;50.90;;;;;;12075899;28;20455;-73
2021/04/06 12:10:03;;;;;;;2.25;1.30;;;9.00;54.00;;;;;;12073484;28;20048;-74
2021/04/06 12:15:49;;;;;;;9.32;1.45;;;9.30;53.80;;;;;;12075573;28;20063;-73
2021/04/06 12:21:36;;;;;;;5.55;1.30;;;8.90;52.50;;;;;;12076142;28;20431;-74
2021/04/06 12:27:23;;;;;;;6.85;1.60;;;9.10;54.40;;;;;;12074372;28;20044;-75
2021/04/06 12:33:09;;;;;;;8.63;1.30;;;9.10;54.00;;;;;;12078035;28;20406;-74
2021/04/06 12:38:56;;;;;;;7.13;1.58;;;9.30;55.60;;;;;;12073956;28;20097;-74
2021/04/06 12:44:44;;;;;;;4.03;1.30;;;9.10;56.20;;;;;;12077550;28;20048;-74
2021/04/06 12:50:31;;;;;;;9.52;2.10;;;9.70;55.50;;;;;;12081153;28;20511;-76
2021/04/06 12:56:17;;;;;;;10.00;2.20;;;9.70;58.10;;;;;;12091439;28;20109;-76
2021/04/06 13:02:05;;;;;;;15.65;3.08;;;9.10;68.30;;;;;;12088502;28;20056;-76
2021/04/06 13:07:52;;;;;;;8.10;3.42;;;8.50;73.10;;;;;;12088788;28;20048;-76
2021/04/06 13:13:39;;;;;;;8.07;2.85;;;8.00;76.40;;;;;;12085812;28;20040;-76
2021/04/06 13:19:26;;;;;;;9.50;3.08;;;7.70;79.40;;;;;;12086396;28;20078;-76
2021/04/06 13:25:16;;;;;;;5.85;2.50;;;7.60;81.00;;;;;;12095714;28;20052;-76
2021/04/06 13:31:03;;;;;;;5.63;2.85;;;7.60;77.90;;;;;;12097705;28;20044;-75
2021/04/06 13:36:51;;;;;;;5.20;2.53;;;8.30;75.10;;;;;;12091148;28;20044;-75
2021/04/06 13:42:38;;;;;;;9.48;2.88;;;8.90;71.40;;;;;;12094286;28;20142;-76
2021/04/06 13:48:24;;;;;;;6.60;2.72;;;9.20;69.10;;;;;;12090149;28;20158;-75
2021/04/06 13:54:11;;;;;;;8.75;3.22;;;9.20;69.20;;;;;;12089148;28;20048;-75
2021/04/06 13:59:58;;;;;;;7.68;2.90;;;9.30;68.20;;;;;;12086244;28;20048;-75
2021/04/06 14:05:46;;;;;;;4.57;1.63;;;9.50;64.80;;;;;;12085157;28;20108;-75
2021/04/06 14:11:34;;;;;;;5.43;1.92;;;9.50;59.20;;;;;;12087564;28;20048;-75
2021/04/06 14:17:20;;;;;;;5.30;2.08;;;9.10;62.00;;;;;;12085642;28;20063;-75
2021/04/06 14:23:11;;;;;;;5.63;1.77;;;8.40;68.00;;;;;;12080670;28;20040;-75
2021/04/06 14:28:58;;;;;;;3.13;1.40;;;8.50;70.10;;;;;;12088627;28;20052;-75
2021/04/06 14:34:46;;;;;;;4.00;1.48;;;9.30;66.20;;;;;;12088910;28;20055;-75
2021/04/06 14:40:33;;;;;;;3.92;1.70;;;9.30;63.10;;;;;;12081828;28;20048;-74
2021/04/06 14:46:23;;;;;;;6.30;1.30;;;9.30;62.50;;;;;;12086532;28;20048;-75
2021/04/06 14:52:12;;;;;;;6.63;1.88;;;9.10;62.20;;;;;;12084818;28;20044;-74
2021/04/06 14:57:58;;;;;;;19.10;1.80;;;9.30;67.30;;;;;;12081730;28;20461;-74
2021/04/06 15:03:48;;;;;;;14.20;1.60;;;8.90;68.50;;;;;;12081873;28;20110;-74
2021/04/06 15:09:36;;;;;;;5.63;1.55;;;8.60;71.00;;;;;;12085509;28;20043;-77
2021/04/06 15:15:25;;;;;;;2.75;1.25;;;8.60;72.20;;;;;;12092483;28;20048;-76
2021/04/06 15:21:13;;;;;;;9.30;2.13;;;8.80;71.80;;;;;;12080663;28;20048;-76
2021/04/06 15:27:01;;;;;;;6.63;1.85;;;8.90;72.30;;;;;;12086162;28;20050;-75
2021/04/06 15:32:50;;;;;;;6.20;1.77;;;8.90;73.70;;;;;;12085590;28;20051;-75
2021/04/06 15:38:38;;;;;;;7.95;1.77;;;9.10;73.10;;;;;;12080109;28;20057;-75
2021/04/06 15:44:24;;;;;;;7.18;1.88;;;9.20;71.00;;;;;;12081993;28;20051;-74
2021/04/06 15:50:16;;;;;;;7.63;1.77;;;9.40;68.60;;;;;;12080334;28;20048;-75
2021/04/06 15:56:04;;;;;;;4.15;1.60;;;9.40;66.30;;;;;;12077132;28;20415;-74
2021/04/06 16:01:51;;;;;;;6.32;1.80;;;9.90;65.40;;;;;;12079532;28;20048;-75
2021/04/06 16:07:38;;;;;;;6.78;1.60;;;10.10;62.00;;;;;;12082860;28;20040;-73
2021/04/06 16:13:27;;;;;;;6.07;1.88;;;9.70;61.50;;;;;;12084400;28;20048;-74
2021/04/06 16:19:14;;;;;;;4.93;1.20;;;9.70;62.30;;;;;;12082614;28;20473;-74
2021/04/06 16:25:00;;;;;;;6.82;1.20;;;9.30;58.50;;;;;;12083971;28;20577;-74
2021/04/06 16:30:52;;;;;;;4.75;1.13;;;8.70;56.60;;;;;;12086995;28;20048;-74
2021/04/06 16:36:38;;;;;;;3.97;0.98;;;8.50;56.90;;;;;;12089229;28;20518;-74
2021/04/06 16:42:24;;;;;;;2.58;1.17;;;8.30;55.00;;;;;;12086832;28;20049;-75
2021/04/06 16:48:12;;;;;;;4.20;1.45;;;8.60;55.60;;;;;;12087328;28;20090;-74
2021/04/06 16:53:58;;;;;;;3.40;1.42;;;8.80;54.90;;;;;;12069599;28;20137;-75
2021/04/06 16:59:44;;;;;;;1.83;1.10;;;8.90;54.40;;;;;;12088230;28;20056;-75
2021/04/06 17:05:32;;;;;;;3.25;1.05;;;9.20;53.30;;;;;;12086261;28;20048;-75
2021/04/06 17:11:19;;;;;;;5.38;1.30;;;13.20;44.00;;;;;;12084147;28;20051;-74
2021/04/06 17:17:06;;;;;;;7.85;1.48;;;16.00;40.80;;;;;;12087497;28;20052;-75
2021/04/06 17:22:54;;;;;;;4.55;1.15;;;15.60;39.50;;;;;;12084636;28;20165;-75
2021/04/06 17:28:41;;;;;;;4.63;0.80;;;12.40;43.80;;;;;;12085534;28;20521;-74
2021/04/06 17:34:27;;;;;;;4.03;1.17;;;10.70;46.60;;;;;;12087722;28;20054;-75
2021/04/06 17:40:18;;;;;;;2.58;1.05;;;9.80;48.50;;;;;;12097586;28;20082;-75
2021/04/06 17:46:05;;;;;;;3.83;1.50;;;9.70;48.70;;;;;;12094114;28;20101;-76
2021/04/06 17:51:53;;;;;;;2.63;0.70;;;9.30;48.40;;;;;;12090773;28;20073;-76
2021/04/06 17:57:40;;;;;;;3.75;1.35;;;8.90;49.20;;;;;;12088848;28;20411;-76
2021/04/06 18:03:27;;;;;;;4.10;1.02;;;8.60;49.00;;;;;;12084577;28;20075;-76
2021/04/06 18:09:13;;;;;;;4.38;1.10;;;8.40;49.50;;;;;;12085924;28;20055;-76
2021/04/06 18:15:00;;;;;;;6.10;1.20;;;8.20;49.30;;;;;;12088703;28;20036;-76
2021/04/06 18:20:47;;;;;;;5.85;1.30;;;8.20;50.00;;;;;;12091298;28;20045;-75
2021/04/06 18:26:34;;;;;;;5.43;1.50;;;8.10;50.80;;;;;;12088648;28;20056;-77
2021/04/06 18:32:21;;;;;;;5.03;1.38;;;8.10;51.20;;;;;;12090496;28;20055;-77
2021/04/06 18:38:07;;;;;;;5.03;1.38;;;8.10;51.60;;;;;;12091713;28;20055;-75
2021/04/06 18:43:54;;;;;;;3.95;1.65;;;8.30;52.50;;;;;;12087274;28;20048;-76
2021/04/06 18:49:41;;;;;;;6.80;1.67;;;8.40;52.20;;;;;;12087535;28;20056;-75
2021/04/06 18:55:28;;;;;;;6.13;1.77;;;8.40;52.40;;;;;;12066336;28;20055;-75
2021/04/06 19:01:14;;;;;;;4.93;1.48;;;8.50;52.90;;;;;;12074126;28;20055;-75
2021/04/06 19:07:02;;;;;;;5.55;1.80;;;8.50;53.10;;;;;;12081132;28;20059;-77
2021/04/06 19:12:49;;;;;;;9.02;2.00;;;8.40;54.20;;;;;;12082105;28;20109;-76
2021/04/06 19:18:36;;;;;;;6.80;3.28;;;8.30;54.00;;;;;;12084748;28;20058;-75
2021/04/06 19:24:24;;;;;;;6.55;1.90;;;8.30;54.80;;;;;;12083421;28;20062;-76
2021/04/06 19:30:13;;;;;;;7.88;2.38;;;8.20;54.80;;;;;;12080095;28;20055;-76
2021/04/06 19:36:00;;;;;;;4.85;2.20;;;8.20;55.10;;;;;;12088715;28;20044;-76
2021/04/06 19:41:48;;;;;;;5.57;2.03;;;8.20;54.40;;;;;;12079408;28;20086;-76
2021/04/06 19:47:34;;;;;;;5.25;1.95;;;7.70;55.40;;;;;;12078634;28;20063;-76
2021/04/06 19:53:21;;;;;;;4.70;1.95;;;7.50;58.20;;;;;;12080666;28;20046;-74
2021/04/06 19:59:10;;;;;;;7.85;1.70;;;7.70;59.70;;;;;;12078036;28;20058;-75
2021/04/06 20:04:56;;;;;;;6.75;1.70;;;7.60;61.80;;;;;;12074583;28;20054;-76
2021/04/06 20:10:44;;;;;;;5.18;1.63;;;7.30;63.40;;;;;;12074957;28;20085;-74
2021/04/06 20:16:33;;;;;;;5.22;1.70;;;7.60;64.30;;;;;;12077889;28;20063;-75
2021/04/06 20:22:20;;;;;;;6.40;1.80;;;7.60;66.00;;;;;;12056324;28;20070;-80
2021/04/06 20:28:06;;;;;;;4.55;1.90;;;7.80;67.10;;;;;;12074959;28;20056;-74
2021/04/06 20:33:56;;;;;;;11.82;2.75;;;7.70;68.60;;;;;;12072843;28;20764;-74
2021/04/06 20:39:42;;;;;;;4.50;1.90;;;7.60;69.50;;;;;;12077036;28;20049;-76
2021/04/06 20:45:29;;;;;;;7.07;1.88;;;7.50;69.80;;;;;;12074664;28;20048;-75
2021/04/06 20:51:17;;;;;;;6.47;2.15;;;7.20;71.20;;;;;;12074953;28;20059;-75
2021/04/06 20:57:04;;;;;;;5.53;2.15;;;7.30;71.50;;;;;;12074021;28;20829;-75
2021/04/06 21:02:50;;;;;;;4.65;1.83;;;7.60;71.10;;;;;;12075602;28;20109;-75
2021/04/06 21:08:37;;;;;;;7.65;2.38;;;7.60;71.40;;;;;;12076351;28;20609;-75
2021/04/06 21:14:24;;;;;;;6.38;1.95;;;7.50;72.00;;;;;;12084911;28;20513;-75
2021/04/06 21:20:11;;;;;;;8.70;2.20;;;7.50;72.80;;;;;;12083692;28;20051;-75
2021/04/06 21:25:58;;;;;;;8.18;2.13;;;7.20;75.60;;;;;;12080673;28;20104;-75
2021/04/06 21:31:45;;;;;;;7.43;2.22;;;6.60;78.60;;;;;;12079950;28;20056;-75
2021/04/06 21:37:31;;;;;;;5.65;2.25;;;6.70;81.30;;;;;;12080192;28;20106;-75
2021/04/06 21:43:18;;;;;;;5.82;2.22;;;6.50;83.00;;;;;;12082167;28;20056;-76
2021/04/06 21:49:05;;;;;;;6.25;2.40;;;6.40;82.70;;;;;;12079729;28;20048;-75
2021/04/06 21:54:51;;;;;;;8.82;2.85;;;6.80;82.30;;;;;;12075985;28;20052;-76
2021/04/06 22:00:39;;;;;;;8.43;2.13;;;6.70;82.60;;;;;;12081660;28;20114;-75
2021/04/06 22:06:25;;;;;;;6.70;2.45;;;7.00;81.70;;;;;;12077200;28;20679;-74
2021/04/06 22:12:11;;;;;;;10.18;2.67;;;6.80;82.30;;;;;;12077826;28;20511;-74
2021/04/06 22:18:00;;;;;;;7.45;2.70;;;6.90;82.30;;;;;;12060123;28;20066;-74
2021/04/06 22:23:46;;;;;;;6.28;2.60;;;7.10;81.80;;;;;;12079422;28;20246;-75
2021/04/06 22:29:33;;;;;;;8.35;2.72;;;7.10;81.40;;;;;;12076360;28;20415;-75
2021/04/06 22:35:22;;;;;;;5.97;2.38;;;7.10;81.60;;;;;;12095839;28;20052;-74
2021/04/06 22:41:09;;;;;;;6.38;2.70;;;7.00;82.30;;;;;;12076539;28;20052;-74
2021/04/06 22:46:55;;;;;;;10.45;2.80;;;7.00;82.00;;;;;;12079557;28;20048;-74
2021/04/06 22:52:43;;;;;;;5.45;2.30;;;7.10;81.90;;;;;;12074839;28;20051;-74
2021/04/06 22:58:34;;;;;;;5.97;2.58;;;7.00;81.40;;;;;;12080508;28;20060;-74
2021/04/06 23:04:20;;;;;;;8.30;2.78;;;7.00;81.40;;;;;;12078806;28;20414;-74
2021/04/06 23:10:12;;;;;;;9.75;2.60;;;6.80;81.80;;;;;;12077454;28;21055;-74
2021/04/06 23:15:58;;;;;;;5.40;2.72;;;6.70;81.90;;;;;;12077127;28;20314;-74
2021/04/06 23:21:45;;;;;;;10.13;3.40;;;6.60;82.00;;;;;;12078440;28;20055;-74
2021/04/06 23:27:32;;;;;;;12.07;2.97;;;6.50;82.60;;;;;;12074898;28;20177;-74
2021/04/06 23:33:19;;;;;;;10.10;3.08;;;6.50;83.00;;;;;;12074142;28;20461;-74
2021/04/06 23:39:05;;;;;;;15.02;2.78;;;6.50;83.00;;;;;;12075079;28;20105;-74
2021/04/06 23:44:53;;;;;;;7.43;3.38;;;6.10;84.10;;;;;;12072523;28;20040;-74
2021/04/06 23:50:39;;;;;;;9.63;3.00;;;5.90;85.00;;;;;;12072630;28;20518;-74
2021/04/06 23:56:25;;;;;;;8.60;3.28;;;5.90;85.60;;;;;;12073804;28;20051;-74
